createdAt,value
2019-01-17T00:00:47.164Z,19.23
2019-01-17T00:06:27.125Z,18.63
2019-01-17T00:11:51.887Z,16.47
2019-01-17T00:17:13.958Z,12.00
2019-01-17T00:22:37.210Z,4.87
2019-01-17T00:27:48.686Z,3.77
2019-01-17T00:33:04.406Z,2.33
2019-01-17T00:38:22.357Z,1.70
2019-01-17T00:43:53.258Z,1.33
2019-01-17T00:49:18.628Z,1.70
2019-01-17T00:54:44.232Z,1.77
2019-01-17T01:00:01.578Z,1.60
2019-01-17T01:05:32.366Z,1.73
2019-01-17T01:10:53.196Z,1.90
2019-01-17T01:16:16.981Z,1.20
2019-01-17T01:21:37.187Z,2.17
2019-01-17T01:27:01.906Z,3.03
2019-01-17T01:32:11.556Z,3.90
2019-01-17T01:37:32.198Z,5.13
2019-01-17T01:42:53.224Z,6.80
2019-01-17T01:48:09.126Z,6.23
2019-01-17T01:53:11.607Z,5.80
2019-01-17T01:58:14.419Z,6.30
2019-01-17T02:03:18.663Z,5.67
2019-01-17T02:08:22.248Z,4.40
2019-01-17T02:13:25.116Z,4.27
2019-01-17T02:18:27.990Z,3.27
2019-01-17T02:23:30.772Z,3.50
2019-01-17T02:28:33.260Z,3.37
2019-01-17T02:33:35.760Z,3.03
2019-01-17T02:38:38.464Z,3.10
2019-01-17T02:43:40.842Z,2.70
2019-01-17T02:48:43.467Z,3.23
2019-01-17T02:53:46.508Z,2.40
2019-01-17T02:58:49.250Z,2.03
2019-01-17T03:03:51.468Z,1.93
2019-01-17T03:08:54.028Z,1.70
2019-01-17T03:13:56.831Z,2.10
2019-01-17T03:18:59.837Z,2.17
2019-01-17T03:24:02.336Z,1.90
2019-01-17T03:29:05.057Z,2.17
2019-01-17T03:34:07.626Z,2.57
2019-01-17T03:39:10.627Z,2.03
2019-01-17T03:44:13.007Z,3.20
2019-01-17T03:49:15.617Z,1.77
2019-01-17T03:54:17.999Z,2.20
2019-01-17T03:59:21.121Z,1.57
2019-01-17T04:04:23.813Z,1.20
2019-01-17T04:09:27.117Z,2.70
2019-01-17T04:14:29.790Z,1.23
2019-01-17T04:19:32.621Z,1.70
2019-01-17T04:24:35.006Z,1.47
2019-01-17T04:29:37.497Z,1.20
2019-01-17T04:34:39.597Z,2.10
2019-01-17T04:39:42.244Z,2.67
2019-01-17T04:44:44.684Z,2.00
2019-01-17T04:49:47.778Z,2.53
2019-01-17T04:54:50.456Z,2.63
2019-01-17T04:59:53.121Z,3.00
2019-01-17T05:04:55.559Z,2.60
2019-01-17T05:09:58.224Z,2.20
2019-01-17T05:15:01.201Z,3.00
2019-01-17T05:20:05.610Z,2.50
2019-01-17T05:25:12.802Z,4.50
2019-01-17T05:30:15.875Z,2.70
2019-01-17T05:35:18.651Z,3.20
2019-01-17T05:40:22.032Z,3.33
2019-01-17T05:45:24.617Z,3.67
2019-01-17T05:50:27.288Z,3.53
2019-01-17T05:55:29.511Z,3.90
2019-01-17T06:00:32.129Z,4.43
2019-01-17T06:05:34.901Z,4.37
2019-01-17T06:10:36.986Z,4.20
2019-01-17T06:15:40.805Z,4.50
2019-01-17T06:20:43.218Z,4.40
2019-01-17T06:25:45.278Z,4.33
2019-01-17T06:30:47.982Z,4.60
2019-01-17T06:35:50.673Z,4.20
2019-01-17T06:40:53.708Z,5.50
2019-01-17T06:45:56.564Z,4.33
2019-01-17T06:50:59.081Z,5.30
2019-01-17T06:56:02.134Z,5.60
2019-01-17T07:01:05.048Z,5.13
2019-01-17T07:06:07.490Z,4.57
2019-01-17T07:11:09.978Z,5.30
2019-01-17T07:16:12.782Z,6.30
2019-01-17T07:21:15.271Z,5.83
2019-01-17T07:26:17.654Z,6.37
2019-01-17T07:31:20.360Z,6.30
2019-01-17T07:36:23.255Z,7.40
2019-01-17T07:41:26.100Z,6.40
2019-01-17T07:46:28.961Z,6.77
2019-01-17T07:51:31.966Z,6.80
2019-01-17T07:56:34.701Z,6.87
2019-01-17T08:01:37.292Z,6.03
2019-01-17T08:06:40.260Z,6.30
2019-01-17T08:11:42.927Z,6.73
2019-01-17T08:16:45.195Z,6.87
2019-01-17T08:21:48.004Z,7.70
2019-01-17T08:26:50.620Z,7.27
2019-01-17T08:31:53.667Z,6.40
2019-01-17T08:36:56.467Z,6.90
2019-01-17T08:41:59.573Z,6.23
2019-01-17T08:47:02.388Z,6.13
2019-01-17T08:52:05.218Z,6.50
2019-01-17T08:57:08.328Z,7.10
2019-01-17T09:02:11.164Z,6.97
2019-01-17T09:07:14.177Z,5.83
2019-01-17T09:12:17.369Z,7.27
2019-01-17T09:17:20.178Z,6.17
2019-01-17T09:22:22.676Z,6.77
2019-01-17T09:27:25.510Z,7.40
2019-01-17T09:32:28.686Z,5.83
2019-01-17T09:37:31.184Z,7.40
2019-01-17T09:42:33.359Z,5.77
2019-01-17T09:47:36.567Z,8.67
2019-01-17T09:52:39.193Z,6.10
2019-01-17T09:57:41.898Z,6.50
2019-01-17T10:02:44.556Z,6.70
2019-01-17T10:07:47.181Z,6.43
2019-01-17T10:12:50.589Z,8.43
2019-01-17T10:18:21.224Z,7.33
2019-01-17T10:23:46.868Z,7.23
2019-01-17T10:29:15.981Z,6.07
2019-01-17T10:34:48.748Z,4.80
2019-01-17T10:40:38.998Z,4.07
2019-01-17T10:46:23.806Z,3.83
2019-01-17T10:51:43.656Z,3.33
2019-01-17T10:57:03.561Z,3.43
2019-01-17T11:02:56.884Z,4.73
2019-01-17T11:08:37.982Z,2.10
2019-01-17T11:14:07.976Z,2.10
2019-01-17T11:20:02.935Z,2.20
2019-01-17T11:25:40.336Z,2.73
2019-01-17T11:31:29.738Z,2.90
2019-01-17T11:37:26.375Z,1.70
2019-01-17T11:42:56.044Z,3.07
2019-01-17T11:48:27.716Z,1.90
2019-01-17T11:54:07.895Z,1.50
2019-01-17T11:59:18.378Z,2.13
2019-01-17T12:04:35.844Z,2.10
2019-01-17T12:09:38.612Z,2.53
2019-01-17T12:14:41.797Z,1.80
2019-01-17T12:19:44.534Z,1.40
2019-01-17T12:24:47.771Z,2.00
2019-01-17T12:29:50.345Z,2.00
2019-01-17T12:34:53.135Z,2.33
2019-01-17T12:39:55.526Z,1.80
2019-01-17T12:44:58.437Z,2.07
2019-01-17T12:50:01.639Z,2.33
2019-01-17T12:55:05.027Z,1.90
2019-01-17T13:00:11.083Z,1.50
2019-01-17T13:05:14.331Z,1.47
2019-01-17T13:10:17.256Z,1.60
2019-01-17T13:15:20.431Z,1.90
2019-01-17T13:20:23.337Z,1.37
2019-01-17T13:25:26.210Z,1.40
2019-01-17T13:30:28.509Z,1.33
2019-01-17T13:35:31.186Z,1.20
2019-01-17T13:40:34.042Z,1.27
2019-01-17T13:45:37.147Z,1.60
2019-01-17T13:50:39.742Z,1.30
2019-01-17T13:55:42.519Z,1.87
2019-01-17T14:00:45.296Z,1.80
2019-01-17T14:05:47.841Z,2.50
2019-01-17T14:10:50.712Z,1.50
2019-01-17T14:15:53.535Z,2.80
2019-01-17T14:20:56.027Z,1.37
2019-01-17T14:25:59.057Z,3.13
2019-01-17T14:31:01.713Z,2.03
2019-01-17T14:36:04.575Z,1.40
2019-01-17T14:41:07.552Z,2.30
2019-01-17T14:46:10.260Z,1.40
2019-01-17T14:51:13.003Z,1.50
2019-01-17T14:56:15.649Z,1.40
2019-01-17T15:01:18.325Z,1.50
2019-01-17T15:06:21.422Z,1.10
2019-01-17T15:11:24.324Z,1.13
2019-01-17T15:16:27.241Z,1.30
2019-01-17T15:21:30.124Z,3.37
2019-01-17T15:26:32.654Z,1.10
2019-01-17T15:31:35.222Z,0.83
2019-01-17T15:36:37.157Z,1.20
2019-01-17T15:41:39.713Z,1.00
2019-01-17T15:46:42.201Z,0.80
2019-01-17T15:51:44.390Z,1.23
2019-01-17T15:56:47.091Z,1.10
2019-01-17T16:01:50.091Z,0.70
2019-01-17T16:06:52.896Z,1.60
2019-01-17T16:11:56.082Z,0.60
2019-01-17T16:16:59.077Z,1.33
2019-01-17T16:22:02.010Z,1.30
2019-01-17T16:27:05.079Z,1.80
2019-01-17T16:32:07.901Z,1.73
2019-01-17T16:37:10.417Z,2.23
2019-01-17T16:42:13.230Z,1.83
2019-01-17T16:47:16.524Z,1.67
2019-01-17T16:52:19.249Z,1.20
2019-01-17T16:57:21.705Z,1.47
2019-01-17T17:02:24.600Z,1.00
2019-01-17T17:07:27.410Z,1.50
2019-01-17T17:12:30.099Z,1.30
2019-01-17T17:17:32.635Z,0.70
2019-01-17T17:22:35.415Z,0.70
2019-01-17T17:27:38.544Z,0.63
2019-01-17T17:32:41.385Z,0.63
2019-01-17T17:37:43.680Z,0.93
2019-01-17T17:42:45.976Z,0.87
2019-01-17T17:47:48.789Z,1.47
2019-01-17T17:52:51.927Z,1.23
2019-01-17T17:57:55.130Z,0.90
2019-01-17T18:02:58.629Z,0.70
2019-01-17T18:08:01.026Z,0.90
2019-01-17T18:13:03.921Z,0.90
2019-01-17T18:18:07.232Z,1.37
2019-01-17T18:23:10.082Z,1.53
2019-01-17T18:28:12.929Z,1.30
2019-01-17T18:33:16.058Z,1.30
2019-01-17T18:38:19.785Z,1.00
2019-01-17T18:43:22.389Z,1.13
2019-01-17T18:48:24.356Z,1.70
2019-01-17T18:53:27.357Z,1.13
2019-01-17T18:58:31.034Z,1.10
2019-01-17T19:03:34.142Z,1.40
2019-01-17T19:08:37.386Z,1.00
2019-01-17T19:13:41.344Z,1.53
2019-01-17T19:18:44.877Z,1.20
2019-01-17T19:23:50.575Z,1.20
2019-01-17T19:28:54.407Z,1.30
2019-01-17T19:33:58.076Z,1.10
2019-01-17T19:39:03.702Z,1.27
2019-01-17T19:44:06.886Z,1.00
2019-01-17T19:49:10.127Z,1.47
2019-01-17T19:54:13.790Z,1.30
2019-01-17T19:59:19.167Z,1.30
2019-01-17T20:04:26.245Z,1.27
2019-01-17T20:09:31.537Z,3.30
2019-01-17T20:14:36.594Z,3.50
2019-01-17T20:19:42.552Z,1.60
2019-01-17T20:24:47.722Z,1.57
2019-01-17T20:29:53.466Z,0.97
2019-01-17T20:35:00.795Z,1.80
2019-01-17T20:40:06.430Z,2.27
2019-01-17T20:45:13.302Z,1.30
2019-01-17T20:50:26.886Z,1.83
2019-01-17T20:55:32.638Z,3.60
2019-01-17T21:00:40.866Z,2.10
2019-01-17T21:05:47.880Z,1.60
2019-01-17T21:10:52.957Z,2.40
2019-01-17T21:16:01.175Z,1.90
2019-01-17T21:21:01.785Z,1.60
2019-01-17T21:26:05.173Z,1.73
2019-01-17T21:31:08.025Z,2.23
2019-01-17T21:36:11.737Z,2.00
2019-01-17T21:41:14.640Z,1.80
2019-01-17T21:46:17.115Z,1.70
2019-01-17T21:51:20.316Z,1.90
2019-01-17T21:56:22.706Z,1.10
2019-01-17T22:01:26.143Z,1.50
2019-01-17T22:06:28.514Z,0.93
2019-01-17T22:11:31.217Z,1.17
2019-01-17T22:16:34.215Z,1.17
2019-01-17T22:21:36.814Z,1.00
2019-01-17T22:26:39.699Z,1.37
2019-01-17T22:31:42.400Z,1.43
2019-01-17T22:36:45.425Z,1.30
2019-01-17T22:41:48.337Z,2.00
2019-01-17T22:46:51.023Z,1.70
2019-01-17T22:51:54.042Z,2.07
2019-01-17T22:56:57.132Z,1.53
2019-01-17T23:02:00.352Z,1.20
2019-01-17T23:07:03.025Z,1.50
2019-01-17T23:12:05.925Z,1.40
2019-01-17T23:17:09.032Z,1.30
2019-01-17T23:22:11.503Z,1.40
2019-01-17T23:27:14.464Z,1.77
2019-01-17T23:32:17.339Z,1.73
2019-01-17T23:37:20.446Z,1.80
2019-01-17T23:42:22.911Z,1.70
2019-01-17T23:47:25.732Z,1.73
2019-01-17T23:52:28.839Z,1.77
2019-01-17T23:57:31.495Z,1.40
